sensor_id;sensor_type;location;lat;lon;timestamp;temperature;humidity
12156;DHT22;6141;49.092;8.516;2023-06-14T00:00:21;18.80;22.60
12156;DHT22;6141;49.092;8.516;2023-06-14T00:02:50;18.90;22.40
12156;DHT22;6141;49.092;8.516;2023-06-14T00:05:19;19.10;21.60
12156;DHT22;6141;49.092;8.516;2023-06-14T00:07:51;19.00;20.80
12156;DHT22;6141;49.092;8.516;2023-06-14T00:10:20;18.80;22.30
12156;DHT22;6141;49.092;8.516;2023-06-14T00:12:49;18.80;23.00
12156;DHT22;6141;49.092;8.516;2023-06-14T00:15:17;18.80;22.10
12156;DHT22;6141;49.092;8.516;2023-06-14T00:17:46;19.00;21.30
12156;DHT22;6141;49.092;8.516;2023-06-14T00:20:14;19.20;20.10
12156;DHT22;6141;49.092;8.516;2023-06-14T00:22:43;19.30;20.40
12156;DHT22;6141;49.092;8.516;2023-06-14T00:25:15;19.40;20.00
12156;DHT22;6141;49.092;8.516;2023-06-14T00:27:56;19.60;20.10
12156;DHT22;6141;49.092;8.516;2023-06-14T00:30:25;19.80;19.70
12156;DHT22;6141;49.092;8.516;2023-06-14T00:32:58;19.90;19.60
12156;DHT22;6141;49.092;8.516;2023-06-14T00:35:27;20.00;18.90
12156;DHT22;6141;49.092;8.516;2023-06-14T00:37:58;20.10;18.20
12156;DHT22;6141;49.092;8.516;2023-06-14T00:40:30;20.40;18.50
12156;DHT22;6141;49.092;8.516;2023-06-14T00:42:58;20.60;18.20
12156;DHT22;6141;49.092;8.516;2023-06-14T00:45:27;20.80;17.20
12156;DHT22;6141;49.092;8.516;2023-06-14T00:47:56;20.90;16.90
12156;DHT22;6141;49.092;8.516;2023-06-14T00:50:25;21.00;17.40
12156;DHT22;6141;49.092;8.516;2023-06-14T00:52:53;21.00;17.20
12156;DHT22;6141;49.092;8.516;2023-06-14T00:55:22;20.90;16.30
12156;DHT22;6141;49.092;8.516;2023-06-14T00:57:52;20.90;16.90
12156;DHT22;6141;49.092;8.516;2023-06-14T01:00:20;20.60;17.10
12156;DHT22;6141;49.092;8.516;2023-06-14T01:02:49;20.40;18.80
12156;DHT22;6141;49.092;8.516;2023-06-14T01:05:18;20.10;19.00
12156;DHT22;6141;49.092;8.516;2023-06-14T01:08:00;20.00;18.90
12156;DHT22;6141;49.092;8.516;2023-06-14T01:10:40;19.90;18.80
12156;DHT22;6141;49.092;8.516;2023-06-14T01:13:20;20.10;19.00
12156;DHT22;6141;49.092;8.516;2023-06-14T01:15:50;19.70;20.20
12156;DHT22;6141;49.092;8.516;2023-06-14T01:18:21;19.00;21.20
12156;DHT22;6141;49.092;8.516;2023-06-14T01:20:54;18.80;21.30
12156;DHT22;6141;49.092;8.516;2023-06-14T01:23:25;19.10;20.90
12156;DHT22;6141;49.092;8.516;2023-06-14T01:25:59;19.20;21.00
12156;DHT22;6141;49.092;8.516;2023-06-14T01:28:35;19.50;20.50
12156;DHT22;6141;49.092;8.516;2023-06-14T01:31:04;19.30;20.30
12156;DHT22;6141;49.092;8.516;2023-06-14T01:33:35;19.20;19.90
12156;DHT22;6141;49.092;8.516;2023-06-14T01:36:05;19.10;20.60
12156;DHT22;6141;49.092;8.516;2023-06-14T01:38:37;19.50;20.00
12156;DHT22;6141;49.092;8.516;2023-06-14T01:41:06;19.30;21.00
12156;DHT22;6141;49.092;8.516;2023-06-14T01:43:36;19.30;20.70
12156;DHT22;6141;49.092;8.516;2023-06-14T01:46:05;19.00;21.10
12156;DHT22;6141;49.092;8.516;2023-06-14T01:48:37;19.40;21.00
12156;DHT22;6141;49.092;8.516;2023-06-14T01:51:05;19.20;20.60
12156;DHT22;6141;49.092;8.516;2023-06-14T01:53:34;18.80;21.20
12156;DHT22;6141;49.092;8.516;2023-06-14T01:56:06;18.60;21.80
12156;DHT22;6141;49.092;8.516;2023-06-14T01:58:34;18.80;21.50
12156;DHT22;6141;49.092;8.516;2023-06-14T02:01:03;18.80;22.00
12156;DHT22;6141;49.092;8.516;2023-06-14T02:03:32;18.70;21.20
12156;DHT22;6141;49.092;8.516;2023-06-14T02:06:02;18.50;22.00
12156;DHT22;6141;49.092;8.516;2023-06-14T02:08:30;18.80;21.10
12156;DHT22;6141;49.092;8.516;2023-06-14T02:11:00;19.10;20.60
12156;DHT22;6141;49.092;8.516;2023-06-14T02:13:30;19.30;19.90
12156;DHT22;6141;49.092;8.516;2023-06-14T02:16:02;19.30;20.40
12156;DHT22;6141;49.092;8.516;2023-06-14T02:18:34;19.10;21.10
12156;DHT22;6141;49.092;8.516;2023-06-14T02:21:04;19.20;20.90
12156;DHT22;6141;49.092;8.516;2023-06-14T02:23:43;19.40;20.80
12156;DHT22;6141;49.092;8.516;2023-06-14T02:26:14;19.60;20.80
12156;DHT22;6141;49.092;8.516;2023-06-14T02:28:43;19.60;21.00
12156;DHT22;6141;49.092;8.516;2023-06-14T02:31:12;19.10;20.80
12156;DHT22;6141;49.092;8.516;2023-06-14T02:33:40;19.10;21.90
12156;DHT22;6141;49.092;8.516;2023-06-14T02:36:09;19.10;20.70
12156;DHT22;6141;49.092;8.516;2023-06-14T02:38:37;19.10;21.10
12156;DHT22;6141;49.092;8.516;2023-06-14T02:41:08;19.10;20.40
12156;DHT22;6141;49.092;8.516;2023-06-14T02:43:37;19.30;20.00
12156;DHT22;6141;49.092;8.516;2023-06-14T02:46:07;19.50;19.70
12156;DHT22;6141;49.092;8.516;2023-06-14T02:48:36;19.50;19.50
12156;DHT22;6141;49.092;8.516;2023-06-14T02:51:05;19.30;20.40
12156;DHT22;6141;49.092;8.516;2023-06-14T02:53:36;18.80;21.10
12156;DHT22;6141;49.092;8.516;2023-06-14T02:56:05;18.70;21.90
12156;DHT22;6141;49.092;8.516;2023-06-14T02:58:34;18.00;23.40
12156;DHT22;6141;49.092;8.516;2023-06-14T03:01:02;17.60;24.50
12156;DHT22;6141;49.092;8.516;2023-06-14T03:03:33;17.40;24.40
12156;DHT22;6141;49.092;8.516;2023-06-14T03:06:01;17.90;23.30
12156;DHT22;6141;49.092;8.516;2023-06-14T03:08:34;18.10;23.00
12156;DHT22;6141;49.092;8.516;2023-06-14T03:11:11;18.10;22.70
12156;DHT22;6141;49.092;8.516;2023-06-14T03:13:44;18.50;22.00
12156;DHT22;6141;49.092;8.516;2023-06-14T03:16:13;18.70;21.40
12156;DHT22;6141;49.092;8.516;2023-06-14T03:18:43;18.90;20.60
12156;DHT22;6141;49.092;8.516;2023-06-14T03:21:12;19.10;20.30
12156;DHT22;6141;49.092;8.516;2023-06-14T03:23:44;19.30;20.10
12156;DHT22;6141;49.092;8.516;2023-06-14T03:26:13;19.40;20.20
12156;DHT22;6141;49.092;8.516;2023-06-14T03:28:42;19.50;20.40
12156;DHT22;6141;49.092;8.516;2023-06-14T03:31:10;19.40;20.70
12156;DHT22;6141;49.092;8.516;2023-06-14T03:33:39;19.50;20.50
12156;DHT22;6141;49.092;8.516;2023-06-14T03:36:10;19.60;20.10
12156;DHT22;6141;49.092;8.516;2023-06-14T03:38:39;19.70;19.90
12156;DHT22;6141;49.092;8.516;2023-06-14T03:41:10;19.40;21.20
12156;DHT22;6141;49.092;8.516;2023-06-14T03:43:38;18.90;21.80
12156;DHT22;6141;49.092;8.516;2023-06-14T03:46:07;18.50;23.00
12156;DHT22;6141;49.092;8.516;2023-06-14T03:48:37;18.10;23.50
12156;DHT22;6141;49.092;8.516;2023-06-14T03:51:07;17.70;24.80
12156;DHT22;6141;49.092;8.516;2023-06-14T03:53:40;17.20;26.20
12156;DHT22;6141;49.092;8.516;2023-06-14T03:56:29;16.80;26.90
12156;DHT22;6141;49.092;8.516;2023-06-14T03:58:58;16.80;27.10
12156;DHT22;6141;49.092;8.516;2023-06-14T04:01:29;16.50;27.20
12156;DHT22;6141;49.092;8.516;2023-06-14T04:04:00;16.10;28.50
12156;DHT22;6141;49.092;8.516;2023-06-14T04:06:28;15.90;29.40
12156;DHT22;6141;49.092;8.516;2023-06-14T04:09:01;15.90;29.60
12156;DHT22;6141;49.092;8.516;2023-06-14T04:11:30;16.40;28.00
12156;DHT22;6141;49.092;8.516;2023-06-14T04:13:59;17.20;27.20
12156;DHT22;6141;49.092;8.516;2023-06-14T04:16:27;17.70;26.60
12156;DHT22;6141;49.092;8.516;2023-06-14T04:18:57;17.30;27.20
12156;DHT22;6141;49.092;8.516;2023-06-14T04:21:26;16.70;28.40
12156;DHT22;6141;49.092;8.516;2023-06-14T04:24:00;17.00;27.90
12156;DHT22;6141;49.092;8.516;2023-06-14T04:26:31;17.50;27.40
12156;DHT22;6141;49.092;8.516;2023-06-14T04:29:01;17.60;27.50
12156;DHT22;6141;49.092;8.516;2023-06-14T04:31:33;17.00;29.00
12156;DHT22;6141;49.092;8.516;2023-06-14T04:34:08;16.70;29.70
12156;DHT22;6141;49.092;8.516;2023-06-14T04:36:47;17.00;28.50
12156;DHT22;6141;49.092;8.516;2023-06-14T04:39:24;17.50;29.20
12156;DHT22;6141;49.092;8.516;2023-06-14T04:41:56;17.00;29.60
12156;DHT22;6141;49.092;8.516;2023-06-14T04:44:29;16.80;30.80
12156;DHT22;6141;49.092;8.516;2023-06-14T04:47:03;17.10;29.50
12156;DHT22;6141;49.092;8.516;2023-06-14T04:49:35;17.30;29.70
12156;DHT22;6141;49.092;8.516;2023-06-14T04:52:05;17.20;30.00
12156;DHT22;6141;49.092;8.516;2023-06-14T04:54:38;17.20;30.60
12156;DHT22;6141;49.092;8.516;2023-06-14T04:57:11;17.00;31.00
12156;DHT22;6141;49.092;8.516;2023-06-14T04:59:42;17.10;31.80
12156;DHT22;6141;49.092;8.516;2023-06-14T05:02:11;17.10;32.50
12156;DHT22;6141;49.092;8.516;2023-06-14T05:04:40;17.40;31.70
12156;DHT22;6141;49.092;8.516;2023-06-14T05:07:09;17.80;31.00
12156;DHT22;6141;49.092;8.516;2023-06-14T05:09:39;18.10;28.70
12156;DHT22;6141;49.092;8.516;2023-06-14T05:12:08;18.40;27.80
12156;DHT22;6141;49.092;8.516;2023-06-14T05:14:37;18.70;26.90
12156;DHT22;6141;49.092;8.516;2023-06-14T05:17:07;18.90;27.50
12156;DHT22;6141;49.092;8.516;2023-06-14T05:19:36;19.00;27.70
12156;DHT22;6141;49.092;8.516;2023-06-14T05:22:05;18.90;27.10
12156;DHT22;6141;49.092;8.516;2023-06-14T05:24:33;18.90;27.80
12156;DHT22;6141;49.092;8.516;2023-06-14T05:27:04;18.70;26.90
12156;DHT22;6141;49.092;8.516;2023-06-14T05:29:34;19.00;26.30
12156;DHT22;6141;49.092;8.516;2023-06-14T05:32:04;19.20;25.80
12156;DHT22;6141;49.092;8.516;2023-06-14T05:34:33;19.40;25.60
12156;DHT22;6141;49.092;8.516;2023-06-14T05:37:02;19.60;25.40
12156;DHT22;6141;49.092;8.516;2023-06-14T05:39:30;19.70;25.80
12156;DHT22;6141;49.092;8.516;2023-06-14T05:41:59;19.70;24.10
12156;DHT22;6141;49.092;8.516;2023-06-14T05:44:29;19.70;25.90
12156;DHT22;6141;49.092;8.516;2023-06-14T05:46:58;19.80;24.10
12156;DHT22;6141;49.092;8.516;2023-06-14T05:49:26;19.90;24.10
12156;DHT22;6141;49.092;8.516;2023-06-14T05:51:55;20.00;23.00
12156;DHT22;6141;49.092;8.516;2023-06-14T05:54:24;20.10;23.10
12156;DHT22;6141;49.092;8.516;2023-06-14T05:56:52;20.20;23.50
12156;DHT22;6141;49.092;8.516;2023-06-14T05:59:21;20.30;23.90
12156;DHT22;6141;49.092;8.516;2023-06-14T06:01:51;20.30;22.80
12156;DHT22;6141;49.092;8.516;2023-06-14T06:04:20;20.10;24.30
12156;DHT22;6141;49.092;8.516;2023-06-14T06:06:48;20.00;24.20
12156;DHT22;6141;49.092;8.516;2023-06-14T06:09:18;19.90;24.10
12156;DHT22;6141;49.092;8.516;2023-06-14T06:11:47;19.50;24.80
12156;DHT22;6141;49.092;8.516;2023-06-14T06:14:20;19.50;23.80
12156;DHT22;6141;49.092;8.516;2023-06-14T06:16:48;19.60;24.70
12156;DHT22;6141;49.092;8.516;2023-06-14T06:19:18;19.50;23.80
12156;DHT22;6141;49.092;8.516;2023-06-14T06:21:49;19.50;24.60
12156;DHT22;6141;49.092;8.516;2023-06-14T06:24:17;19.50;24.80
12156;DHT22;6141;49.092;8.516;2023-06-14T06:26:45;19.50;24.30
12156;DHT22;6141;49.092;8.516;2023-06-14T06:29:14;19.70;23.90
12156;DHT22;6141;49.092;8.516;2023-06-14T06:31:44;19.70;23.60
12156;DHT22;6141;49.092;8.516;2023-06-14T06:34:13;19.70;24.00
12156;DHT22;6141;49.092;8.516;2023-06-14T06:36:44;19.90;24.10
12156;DHT22;6141;49.092;8.516;2023-06-14T06:39:12;20.10;23.10
12156;DHT22;6141;49.092;8.516;2023-06-14T06:41:42;20.30;23.70
12156;DHT22;6141;49.092;8.516;2023-06-14T06:44:10;20.40;24.30
12156;DHT22;6141;49.092;8.516;2023-06-14T06:46:40;20.60;22.80
12156;DHT22;6141;49.092;8.516;2023-06-14T06:49:11;20.80;22.50
12156;DHT22;6141;49.092;8.516;2023-06-14T06:51:41;21.00;22.20
12156;DHT22;6141;49.092;8.516;2023-06-14T06:54:12;21.10;21.90
12156;DHT22;6141;49.092;8.516;2023-06-14T06:56:40;21.30;22.10
12156;DHT22;6141;49.092;8.516;2023-06-14T06:59:09;21.50;21.50
12156;DHT22;6141;49.092;8.516;2023-06-14T07:01:37;21.80;21.20
12156;DHT22;6141;49.092;8.516;2023-06-14T07:04:06;21.80;20.30
12156;DHT22;6141;49.092;8.516;2023-06-14T07:06:35;21.90;20.40
12156;DHT22;6141;49.092;8.516;2023-06-14T07:09:05;22.10;21.10
12156;DHT22;6141;49.092;8.516;2023-06-14T07:11:41;22.20;20.20
12156;DHT22;6141;49.092;8.516;2023-06-14T07:14:10;22.10;20.50
12156;DHT22;6141;49.092;8.516;2023-06-14T07:16:38;22.20;20.60
12156;DHT22;6141;49.092;8.516;2023-06-14T07:19:08;22.40;20.40
12156;DHT22;6141;49.092;8.516;2023-06-14T07:21:38;22.50;19.30
12156;DHT22;6141;49.092;8.516;2023-06-14T07:24:07;22.70;19.30
12156;DHT22;6141;49.092;8.516;2023-06-14T07:26:36;22.80;19.00
12156;DHT22;6141;49.092;8.516;2023-06-14T07:29:06;23.00;18.80
12156;DHT22;6141;49.092;8.516;2023-06-14T07:31:35;23.10;19.30
12156;DHT22;6141;49.092;8.516;2023-06-14T07:34:03;23.30;18.60
12156;DHT22;6141;49.092;8.516;2023-06-14T07:36:32;23.40;18.40
12156;DHT22;6141;49.092;8.516;2023-06-14T07:39:01;23.50;17.70
12156;DHT22;6141;49.092;8.516;2023-06-14T07:41:31;23.70;17.70
12156;DHT22;6141;49.092;8.516;2023-06-14T07:44:00;23.60;16.50
12156;DHT22;6141;49.092;8.516;2023-06-14T07:46:31;23.60;17.70
12156;DHT22;6141;49.092;8.516;2023-06-14T07:49:01;23.80;17.70
12156;DHT22;6141;49.092;8.516;2023-06-14T07:51:31;23.50;16.80
12156;DHT22;6141;49.092;8.516;2023-06-14T07:54:00;23.20;16.70
12156;DHT22;6141;49.092;8.516;2023-06-14T07:56:29;23.30;17.30
12156;DHT22;6141;49.092;8.516;2023-06-14T07:58:58;23.30;17.30
12156;DHT22;6141;49.092;8.516;2023-06-14T08:01:26;23.70;17.00
12156;DHT22;6141;49.092;8.516;2023-06-14T08:03:56;24.00;16.60
12156;DHT22;6141;49.092;8.516;2023-06-14T08:06:25;24.10;16.70
12156;DHT22;6141;49.092;8.516;2023-06-14T08:08:54;24.10;16.70
12156;DHT22;6141;49.092;8.516;2023-06-14T08:11:22;24.20;16.80
12156;DHT22;6141;49.092;8.516;2023-06-14T08:13:52;24.20;16.40
12156;DHT22;6141;49.092;8.516;2023-06-14T08:16:20;24.40;15.80
12156;DHT22;6141;49.092;8.516;2023-06-14T08:18:49;24.60;15.60
12156;DHT22;6141;49.092;8.516;2023-06-14T08:21:19;24.50;16.10
12156;DHT22;6141;49.092;8.516;2023-06-14T08:23:47;24.70;16.70
12156;DHT22;6141;49.092;8.516;2023-06-14T08:26:16;24.70;15.80
12156;DHT22;6141;49.092;8.516;2023-06-14T08:28:45;24.50;14.40
12156;DHT22;6141;49.092;8.516;2023-06-14T08:31:13;24.60;17.10
12156;DHT22;6141;49.092;8.516;2023-06-14T08:33:42;24.70;14.20
12156;DHT22;6141;49.092;8.516;2023-06-14T08:36:11;24.90;15.30
12156;DHT22;6141;49.092;8.516;2023-06-14T08:38:41;24.70;14.90
12156;DHT22;6141;49.092;8.516;2023-06-14T08:41:11;24.70;16.00
12156;DHT22;6141;49.092;8.516;2023-06-14T08:43:41;24.90;16.60
12156;DHT22;6141;49.092;8.516;2023-06-14T08:46:10;24.90;15.80
12156;DHT22;6141;49.092;8.516;2023-06-14T08:48:39;25.10;16.40
12156;DHT22;6141;49.092;8.516;2023-06-14T08:51:10;25.40;14.20
12156;DHT22;6141;49.092;8.516;2023-06-14T08:53:41;25.70;14.70
12156;DHT22;6141;49.092;8.516;2023-06-14T08:56:11;25.50;13.90
12156;DHT22;6141;49.092;8.516;2023-06-14T08:58:44;25.40;14.80
12156;DHT22;6141;49.092;8.516;2023-06-14T09:01:13;25.10;15.20
12156;DHT22;6141;49.092;8.516;2023-06-14T09:03:45;25.20;14.30
12156;DHT22;6141;49.092;8.516;2023-06-14T09:06:15;25.40;16.30
12156;DHT22;6141;49.092;8.516;2023-06-14T09:08:47;25.60;15.30
12156;DHT22;6141;49.092;8.516;2023-06-14T09:11:18;25.80;14.10
12156;DHT22;6141;49.092;8.516;2023-06-14T09:13:48;25.80;14.00
12156;DHT22;6141;49.092;8.516;2023-06-14T09:16:17;25.70;16.70
12156;DHT22;6141;49.092;8.516;2023-06-14T09:18:46;25.80;14.20
12156;DHT22;6141;49.092;8.516;2023-06-14T09:21:17;25.90;15.20
12156;DHT22;6141;49.092;8.516;2023-06-14T09:23:48;26.00;14.50
12156;DHT22;6141;49.092;8.516;2023-06-14T09:26:18;26.00;14.40
12156;DHT22;6141;49.092;8.516;2023-06-14T09:28:48;26.10;12.70
12156;DHT22;6141;49.092;8.516;2023-06-14T09:31:18;26.20;14.20
12156;DHT22;6141;49.092;8.516;2023-06-14T09:33:49;26.20;13.80
12156;DHT22;6141;49.092;8.516;2023-06-14T09:36:21;26.20;13.70
12156;DHT22;6141;49.092;8.516;2023-06-14T09:38:56;26.30;13.00
12156;DHT22;6141;49.092;8.516;2023-06-14T09:41:31;26.40;12.80
12156;DHT22;6141;49.092;8.516;2023-06-14T09:44:00;26.40;11.90
12156;DHT22;6141;49.092;8.516;2023-06-14T09:46:35;26.50;12.80
12156;DHT22;6141;49.092;8.516;2023-06-14T09:49:05;26.60;12.90
12156;DHT22;6141;49.092;8.516;2023-06-14T09:51:36;26.70;12.90
12156;DHT22;6141;49.092;8.516;2023-06-14T09:54:07;26.80;11.30
12156;DHT22;6141;49.092;8.516;2023-06-14T09:56:38;26.90;11.20
12156;DHT22;6141;49.092;8.516;2023-06-14T09:59:12;26.80;11.30
12156;DHT22;6141;49.092;8.516;2023-06-14T10:01:45;27.00;11.20
12156;DHT22;6141;49.092;8.516;2023-06-14T10:04:15;26.80;11.00
12156;DHT22;6141;49.092;8.516;2023-06-14T10:06:45;26.70;13.00
12156;DHT22;6141;49.092;8.516;2023-06-14T10:09:17;26.80;10.20
12156;DHT22;6141;49.092;8.516;2023-06-14T10:11:45;26.90;10.40
12156;DHT22;6141;49.092;8.516;2023-06-14T10:14:15;27.20;8.90
12156;DHT22;6141;49.092;8.516;2023-06-14T10:16:53;27.10;10.60
12156;DHT22;6141;49.092;8.516;2023-06-14T10:19:27;26.90;10.50
12156;DHT22;6141;49.092;8.516;2023-06-14T10:22:04;26.90;9.90
12156;DHT22;6141;49.092;8.516;2023-06-14T10:24:40;27.10;10.10
12156;DHT22;6141;49.092;8.516;2023-06-14T10:27:10;27.30;12.10
12156;DHT22;6141;49.092;8.516;2023-06-14T10:30:01;27.40;9.80
12156;DHT22;6141;49.092;8.516;2023-06-14T10:32:32;27.50;10.60
12156;DHT22;6141;49.092;8.516;2023-06-14T10:35:07;27.30;8.90
12156;DHT22;6141;49.092;8.516;2023-06-14T10:37:39;27.10;9.20
12156;DHT22;6141;49.092;8.516;2023-06-14T10:40:30;27.10;10.10
12156;DHT22;6141;49.092;8.516;2023-06-14T10:42:59;27.20;10.40
12156;DHT22;6141;49.092;8.516;2023-06-14T10:45:27;27.40;10.10
12156;DHT22;6141;49.092;8.516;2023-06-14T10:47:57;27.50;10.70
12156;DHT22;6141;49.092;8.516;2023-06-14T10:50:28;27.80;10.50
12156;DHT22;6141;49.092;8.516;2023-06-14T10:52:57;27.40;9.30
12156;DHT22;6141;49.092;8.516;2023-06-14T10:55:28;27.10;11.80
12156;DHT22;6141;49.092;8.516;2023-06-14T10:58:03;27.20;10.90
12156;DHT22;6141;49.092;8.516;2023-06-14T11:00:33;27.10;10.00
12156;DHT22;6141;49.092;8.516;2023-06-14T11:03:36;27.10;10.70
12156;DHT22;6141;49.092;8.516;2023-06-14T11:06:15;27.00;11.00
12156;DHT22;6141;49.092;8.516;2023-06-14T11:09:10;27.30;10.20
12156;DHT22;6141;49.092;8.516;2023-06-14T11:11:44;27.10;11.00
12156;DHT22;6141;49.092;8.516;2023-06-14T11:14:13;27.20;11.00
12156;DHT22;6141;49.092;8.516;2023-06-14T11:16:42;26.90;10.80
12156;DHT22;6141;49.092;8.516;2023-06-14T11:19:10;26.40;10.50
12156;DHT22;6141;49.092;8.516;2023-06-14T11:21:40;26.60;11.90
12156;DHT22;6141;49.092;8.516;2023-06-14T11:24:10;27.00;10.50
12156;DHT22;6141;49.092;8.516;2023-06-14T11:26:40;27.10;10.80
12156;DHT22;6141;49.092;8.516;2023-06-14T11:29:10;27.20;9.90
12156;DHT22;6141;49.092;8.516;2023-06-14T11:31:43;27.30;9.80
12156;DHT22;6141;49.092;8.516;2023-06-14T11:34:12;27.20;10.90
12156;DHT22;6141;49.092;8.516;2023-06-14T11:36:41;27.30;9.30
12156;DHT22;6141;49.092;8.516;2023-06-14T11:39:10;27.50;9.40
12156;DHT22;6141;49.092;8.516;2023-06-14T11:41:41;27.70;9.80
12156;DHT22;6141;49.092;8.516;2023-06-14T11:44:11;27.50;10.00
12156;DHT22;6141;49.092;8.516;2023-06-14T11:46:41;27.40;10.20
12156;DHT22;6141;49.092;8.516;2023-06-14T11:49:10;27.30;10.60
12156;DHT22;6141;49.092;8.516;2023-06-14T11:51:38;27.40;10.90
12156;DHT22;6141;49.092;8.516;2023-06-14T11:54:07;27.50;11.40
12156;DHT22;6141;49.092;8.516;2023-06-14T11:56:37;27.50;11.30
12156;DHT22;6141;49.092;8.516;2023-06-14T11:59:05;27.60;10.90
12156;DHT22;6141;49.092;8.516;2023-06-14T12:01:39;27.10;10.00
12156;DHT22;6141;49.092;8.516;2023-06-14T12:04:13;26.90;11.20
12156;DHT22;6141;49.092;8.516;2023-06-14T12:06:45;26.90;11.80
12156;DHT22;6141;49.092;8.516;2023-06-14T12:09:14;27.00;13.10
12156;DHT22;6141;49.092;8.516;2023-06-14T12:11:45;27.10;11.20
12156;DHT22;6141;49.092;8.516;2023-06-14T12:14:14;27.20;11.40
12156;DHT22;6141;49.092;8.516;2023-06-14T12:16:45;27.40;10.20
12156;DHT22;6141;49.092;8.516;2023-06-14T12:19:14;27.40;10.60
12156;DHT22;6141;49.092;8.516;2023-06-14T12:21:46;27.30;11.30
12156;DHT22;6141;49.092;8.516;2023-06-14T12:24:16;27.20;11.60
12156;DHT22;6141;49.092;8.516;2023-06-14T12:26:45;27.50;11.00
12156;DHT22;6141;49.092;8.516;2023-06-14T12:29:14;27.50;10.10
12156;DHT22;6141;49.092;8.516;2023-06-14T12:31:44;27.40;10.50
12156;DHT22;6141;49.092;8.516;2023-06-14T12:34:13;27.30;9.40
12156;DHT22;6141;49.092;8.516;2023-06-14T12:36:42;27.20;10.80
12156;DHT22;6141;49.092;8.516;2023-06-14T12:39:13;27.20;12.50
12156;DHT22;6141;49.092;8.516;2023-06-14T12:41:41;27.30;11.40
12156;DHT22;6141;49.092;8.516;2023-06-14T12:44:23;27.40;11.30
12156;DHT22;6141;49.092;8.516;2023-06-14T12:46:55;27.50;12.00
12156;DHT22;6141;49.092;8.516;2023-06-14T12:49:25;27.60;10.40
12156;DHT22;6141;49.092;8.516;2023-06-14T12:52:25;27.60;10.60
12156;DHT22;6141;49.092;8.516;2023-06-14T12:56:21;27.60;9.10
12156;DHT22;6141;49.092;8.516;2023-06-14T12:58:51;27.40;8.40
12156;DHT22;6141;49.092;8.516;2023-06-14T13:01:20;27.30;8.60
12156;DHT22;6141;49.092;8.516;2023-06-14T13:03:51;27.30;9.50
12156;DHT22;6141;49.092;8.516;2023-06-14T13:06:22;27.00;10.20
12156;DHT22;6141;49.092;8.516;2023-06-14T13:09:01;27.10;11.00
12156;DHT22;6141;49.092;8.516;2023-06-14T13:11:49;26.90;10.20
12156;DHT22;6141;49.092;8.516;2023-06-14T13:14:18;27.00;11.30
12156;DHT22;6141;49.092;8.516;2023-06-14T13:17:24;27.10;10.70
12156;DHT22;6141;49.092;8.516;2023-06-14T13:19:57;26.60;8.40
12156;DHT22;6141;49.092;8.516;2023-06-14T13:22:25;27.00;11.70
12156;DHT22;6141;49.092;8.516;2023-06-14T13:25:05;27.30;9.30
12156;DHT22;6141;49.092;8.516;2023-06-14T13:27:40;27.50;10.30
12156;DHT22;6141;49.092;8.516;2023-06-14T13:30:10;27.70;7.90
12156;DHT22;6141;49.092;8.516;2023-06-14T13:32:40;27.70;7.90
12156;DHT22;6141;49.092;8.516;2023-06-14T13:35:10;27.70;9.90
12156;DHT22;6141;49.092;8.516;2023-06-14T13:37:38;27.60;6.50
12156;DHT22;6141;49.092;8.516;2023-06-14T13:40:07;27.40;8.40
12156;DHT22;6141;49.092;8.516;2023-06-14T13:42:36;27.50;9.10
12156;DHT22;6141;49.092;8.516;2023-06-14T13:45:05;27.50;7.80
12156;DHT22;6141;49.092;8.516;2023-06-14T13:47:34;27.40;9.20
12156;DHT22;6141;49.092;8.516;2023-06-14T13:50:05;27.30;8.60
12156;DHT22;6141;49.092;8.516;2023-06-14T13:52:36;27.30;11.40
12156;DHT22;6141;49.092;8.516;2023-06-14T13:55:06;27.40;10.00
12156;DHT22;6141;49.092;8.516;2023-06-14T13:57:34;27.70;9.60
12156;DHT22;6141;49.092;8.516;2023-06-14T14:00:07;27.90;9.90
12156;DHT22;6141;49.092;8.516;2023-06-14T14:02:39;28.00;9.10
12156;DHT22;6141;49.092;8.516;2023-06-14T14:05:08;27.90;8.10
12156;DHT22;6141;49.092;8.516;2023-06-14T14:07:38;28.10;8.20
12156;DHT22;6141;49.092;8.516;2023-06-14T14:10:07;28.10;8.90
12156;DHT22;6141;49.092;8.516;2023-06-14T14:12:36;28.30;6.60
12156;DHT22;6141;49.092;8.516;2023-06-14T14:15:08;28.40;9.20
12156;DHT22;6141;49.092;8.516;2023-06-14T14:17:40;28.50;8.40
12156;DHT22;6141;49.092;8.516;2023-06-14T14:20:10;28.60;5.40
12156;DHT22;6141;49.092;8.516;2023-06-14T14:22:41;28.50;7.90
12156;DHT22;6141;49.092;8.516;2023-06-14T14:25:10;28.50;7.30
12156;DHT22;6141;49.092;8.516;2023-06-14T14:27:42;28.40;8.30
12156;DHT22;6141;49.092;8.516;2023-06-14T14:30:12;28.30;7.60
12156;DHT22;6141;49.092;8.516;2023-06-14T14:32:41;28.10;8.10
12156;DHT22;6141;49.092;8.516;2023-06-14T14:35:11;28.20;8.20
12156;DHT22;6141;49.092;8.516;2023-06-14T14:37:41;28.10;8.10
12156;DHT22;6141;49.092;8.516;2023-06-14T14:40:11;28.00;9.60
12156;DHT22;6141;49.092;8.516;2023-06-14T14:42:40;27.90;8.10
12156;DHT22;6141;49.092;8.516;2023-06-14T14:45:09;27.90;8.00
12156;DHT22;6141;49.092;8.516;2023-06-14T14:47:37;28.00;7.40
12156;DHT22;6141;49.092;8.516;2023-06-14T14:50:06;28.00;8.60
12156;DHT22;6141;49.092;8.516;2023-06-14T14:52:36;28.00;6.70
12156;DHT22;6141;49.092;8.516;2023-06-14T14:55:07;27.90;6.30
12156;DHT22;6141;49.092;8.516;2023-06-14T14:57:36;27.90;8.10
12156;DHT22;6141;49.092;8.516;2023-06-14T15:00:07;28.20;6.30
12156;DHT22;6141;49.092;8.516;2023-06-14T15:02:36;28.10;8.10
12156;DHT22;6141;49.092;8.516;2023-06-14T15:05:06;27.90;8.80
12156;DHT22;6141;49.092;8.516;2023-06-14T15:07:35;27.70;7.90
12156;DHT22;6141;49.092;8.516;2023-06-14T15:10:07;27.70;9.90
12156;DHT22;6141;49.092;8.516;2023-06-14T15:12:36;28.00;9.00
12156;DHT22;6141;49.092;8.516;2023-06-14T15:15:05;27.90;8.10
12156;DHT22;6141;49.092;8.516;2023-06-14T15:17:34;27.60;9.40
12156;DHT22;6141;49.092;8.516;2023-06-14T15:20:03;27.80;10.20
12156;DHT22;6141;49.092;8.516;2023-06-14T15:22:33;28.10;8.80
12156;DHT22;6141;49.092;8.516;2023-06-14T15:25:01;28.10;8.40
12156;DHT22;6141;49.092;8.516;2023-06-14T15:27:31;28.20;8.20
12156;DHT22;6141;49.092;8.516;2023-06-14T15:30:00;28.40;6.60
12156;DHT22;6141;49.092;8.516;2023-06-14T15:32:28;28.40;8.30
12156;DHT22;6141;49.092;8.516;2023-06-14T15:34:57;28.20;7.10
12156;DHT22;6141;49.092;8.516;2023-06-14T15:37:26;28.40;7.90
12156;DHT22;6141;49.092;8.516;2023-06-14T15:39:54;28.50;6.10
12156;DHT22;6141;49.092;8.516;2023-06-14T15:42:23;28.20;7.60
12156;DHT22;6141;49.092;8.516;2023-06-14T15:44:52;28.10;7.20
12156;DHT22;6141;49.092;8.516;2023-06-14T15:47:21;28.10;8.20
12156;DHT22;6141;49.092;8.516;2023-06-14T15:49:50;28.10;8.20
12156;DHT22;6141;49.092;8.516;2023-06-14T15:52:20;28.10;8.80
12156;DHT22;6141;49.092;8.516;2023-06-14T15:54:48;28.10;6.80
12156;DHT22;6141;49.092;8.516;2023-06-14T15:57:17;28.10;5.20
12156;DHT22;6141;49.092;8.516;2023-06-14T15:59:46;28.00;8.10
12156;DHT22;6141;49.092;8.516;2023-06-14T16:02:16;27.80;8.60
12156;DHT22;6141;49.092;8.516;2023-06-14T16:04:45;27.60;8.00
12156;DHT22;6141;49.092;8.516;2023-06-14T16:07:14;27.50;7.80
12156;DHT22;6141;49.092;8.516;2023-06-14T16:09:44;27.60;7.80
12156;DHT22;6141;49.092;8.516;2023-06-14T16:12:13;27.70;8.80